Time;durP1;ratioP1;P1;durP2;ratioP2;P2;SDS_P1;SDS_P2;PMS_P1;PMS_P2;Temp;Humidity;BMP_temperature;BMP_pressure;BME280_temperature;BME280_humidity;BME280_pressure;Samples;Min_cycle;Max_cycle;Signal;HPM_P1;HPM_P2
2023/04/26 00:00:42;;;;;;;16.27;13.70;;;4.50;87.30;;;;;;4939979;29;20209;-88
2023/04/26 00:03:08;;;;;;;24.07;15.30;;;4.50;87.20;;;;;;4939575;29;20189;-88
2023/04/26 00:05:36;;;;;;;18.50;13.90;;;4.50;87.30;;;;;;4939450;29;20549;-88
2023/04/26 00:08:03;;;;;;;12.63;5.73;;;4.40;87.30;;;;;;4939520;29;20197;-88
2023/04/26 00:10:28;;;;;;;13.63;5.60;;;4.30;87.40;;;;;;4939059;29;20199;-87
2023/04/26 00:12:54;;;;;;;18.17;13.17;;;4.40;87.50;;;;;;4956678;29;20199;-87
2023/04/26 00:15:19;;;;;;;16.60;14.07;;;4.40;87.00;;;;;;4939273;29;20184;-88
2023/04/26 00:17:46;;;;;;;17.37;14.40;;;4.40;86.40;;;;;;4939309;29;20751;-88
2023/04/26 00:20:12;;;;;;;16.73;14.67;;;4.40;85.60;;;;;;4939030;29;20689;-89
2023/04/26 00:22:38;;;;;;;8.20;4.90;;;4.30;85.60;;;;;;4939365;29;20179;-89
2023/04/26 00:25:04;;;;;;;7.50;6.07;;;4.30;85.70;;;;;;4939050;29;20188;-88
2023/04/26 00:27:30;;;;;;;23.77;14.40;;;4.30;85.80;;;;;;4939243;29;20205;-88
2023/04/26 00:29:56;;;;;;;15.83;13.83;;;4.20;86.00;;;;;;4939709;29;20214;-88
2023/04/26 00:32:21;;;;;;;14.60;13.00;;;4.10;86.40;;;;;;4939211;29;20213;-89
2023/04/26 00:34:48;;;;;;;14.47;12.83;;;4.10;86.70;;;;;;4956483;29;20204;-89
2023/04/26 00:37:13;;;;;;;14.67;5.03;;;4.10;87.20;;;;;;4938082;29;20333;-89
2023/04/26 00:39:39;;;;;;;16.03;5.87;;;4.00;87.50;;;;;;4956113;28;20258;-89
2023/04/26 00:42:05;;;;;;;10.90;7.17;;;4.00;87.50;;;;;;4938896;29;20685;-89
2023/04/26 00:44:30;;;;;;;20.57;12.47;;;4.00;87.60;;;;;;4938854;29;20234;-89
2023/04/26 00:46:56;;;;;;;16.80;11.37;;;3.90;87.90;;;;;;4938685;29;20199;-89
2023/04/26 00:49:24;;;;;;;18.83;12.37;;;3.90;88.00;;;;;;4938876;29;20238;-89
2023/04/26 00:51:51;;;;;;;12.37;11.10;;;3.80;88.00;;;;;;4956274;29;20630;-89
2023/04/26 00:54:19;;;;;;;9.00;4.90;;;3.90;88.00;;;;;;4938787;29;20187;-89
2023/04/26 00:56:45;;;;;;;15.60;6.90;;;3.80;88.10;;;;;;4938815;29;20292;-88
2023/04/26 00:59:11;;;;;;;13.97;11.47;;;3.70;88.10;;;;;;4955786;29;20207;-89
2023/04/26 01:01:36;;;;;;;16.67;11.57;;;3.70;88.20;;;;;;4938691;29;20184;-89
2023/04/26 01:04:03;;;;;;;22.30;12.13;;;3.80;88.20;;;;;;4938803;29;20590;-89
2023/04/26 01:06:33;;;;;;;14.23;11.47;;;3.80;88.50;;;;;;4938764;29;20226;-88
2023/04/26 01:09:14;;;;;;;24.63;5.50;;;3.90;88.60;;;;;;4938675;29;20203;-88
2023/04/26 01:11:40;;;;;;;9.67;5.50;;;4.00;88.50;;;;;;4956020;29;20195;-88
2023/04/26 01:14:07;;;;;;;15.37;12.10;;;4.10;88.20;;;;;;4955834;28;20199;-88
2023/04/26 01:16:34;;;;;;;17.40;12.20;;;4.10;87.90;;;;;;4938640;29;20199;-88
2023/04/26 01:19:11;;;;;;;16.40;11.37;;;4.00;87.80;;;;;;4938595;29;20185;-88
2023/04/26 01:21:36;;;;;;;13.03;11.80;;;3.90;87.80;;;;;;4938494;29;20207;-88
2023/04/26 01:24:02;;;;;;;11.30;5.10;;;3.90;87.70;;;;;;4938582;29;20250;-88
2023/04/26 01:26:28;;;;;;;16.33;4.90;;;4.00;87.70;;;;;;4938531;29;20206;-88
2023/04/26 01:28:53;;;;;;;15.40;11.97;;;3.90;87.70;;;;;;4938530;29;20181;-88
2023/04/26 01:31:19;;;;;;;17.53;11.33;;;3.90;87.90;;;;;;4938819;29;20187;-88
2023/04/26 01:33:45;;;;;;;14.97;10.93;;;4.00;88.20;;;;;;4956146;29;20175;-88
2023/04/26 01:36:11;;;;;;;13.03;10.90;;;4.00;88.40;;;;;;4938776;29;20231;-89
2023/04/26 01:38:36;;;;;;;16.60;5.20;;;4.00;88.40;;;;;;4956211;28;20172;-88
2023/04/26 01:41:02;;;;;;;16.10;6.10;;;4.00;87.80;;;;;;4938637;29;20215;-89
2023/04/26 01:43:27;;;;;;;14.23;10.27;;;4.00;87.70;;;;;;4955718;29;20588;-89
2023/04/26 01:45:53;;;;;;;14.20;10.40;;;4.00;87.60;;;;;;4938529;28;20624;-88
2023/04/26 01:48:18;;;;;;;16.33;11.30;;;4.00;87.80;;;;;;4940120;29;20180;-88
2023/04/26 01:50:44;;;;;;;16.13;12.40;;;4.10;87.90;;;;;;4942042;29;20674;-88
2023/04/26 01:53:10;;;;;;;11.30;5.10;;;4.20;88.00;;;;;;4942023;29;20766;-88
2023/04/26 01:55:35;;;;;;;12.87;5.30;;;4.20;88.20;;;;;;4941862;29;20233;-89
2023/04/26 01:58:01;;;;;;;9.70;5.30;;;4.20;88.40;;;;;;4942122;29;20571;-89
2023/04/26 02:00:28;;;;;;;14.90;11.93;;;4.20;88.60;;;;;;4941740;29;20222;-89
2023/04/26 02:02:54;;;;;;;12.00;10.70;;;4.20;88.70;;;;;;4941915;29;20177;-89
2023/04/26 02:05:21;;;;;;;25.57;12.43;;;4.10;88.80;;;;;;4941643;29;20611;-89
2023/04/26 02:07:46;;;;;;;14.07;12.10;;;4.10;88.90;;;;;;4941712;29;20203;-88
2023/04/26 02:10:12;;;;;;;11.60;5.40;;;4.00;88.90;;;;;;4941723;29;20725;-87
2023/04/26 02:12:38;;;;;;;13.57;5.47;;;4.00;89.00;;;;;;4941856;29;20182;-88
2023/04/26 02:15:05;;;;;;;15.70;10.20;;;3.80;89.30;;;;;;4941999;29;20190;-88
2023/04/26 02:17:30;;;;;;;18.60;11.90;;;3.70;89.40;;;;;;4959113;28;20199;-89
2023/04/26 02:19:56;;;;;;;13.23;11.33;;;3.70;89.60;;;;;;4942010;29;20218;-89
2023/04/26 02:22:24;;;;;;;14.00;11.17;;;3.70;89.60;;;;;;4941763;29;20204;-88
2023/04/26 02:24:51;;;;;;;10.80;4.77;;;3.80;89.70;;;;;;4942006;29;20190;-88
2023/04/26 02:27:16;;;;;;;11.90;4.97;;;3.80;89.70;;;;;;4942049;29;20637;-88
2023/04/26 02:29:42;;;;;;;11.70;10.60;;;3.70;89.80;;;;;;4941816;29;20224;-88
2023/04/26 02:32:07;;;;;;;14.47;10.07;;;3.80;89.80;;;;;;4942385;29;20322;-88
2023/04/26 02:34:33;;;;;;;17.23;11.27;;;3.70;89.60;;;;;;4941797;29;20234;-88
2023/04/26 02:36:59;;;;;;;13.17;11.43;;;3.70;89.50;;;;;;4941630;29;20207;-88
2023/04/26 02:39:25;;;;;;;16.37;5.63;;;3.60;89.50;;;;;;4941667;29;20207;-89
2023/04/26 02:41:50;;;;;;;8.33;4.90;;;3.70;89.50;;;;;;4941637;29;20179;-88
2023/04/26 02:44:16;;;;;;;14.60;9.17;;;3.80;89.40;;;;;;4942105;29;20210;-88
2023/04/26 02:46:41;;;;;;;15.17;10.83;;;3.70;89.00;;;;;;4958927;28;20670;-88
2023/04/26 02:49:07;;;;;;;11.83;10.67;;;3.70;88.90;;;;;;4941656;29;20179;-88
2023/04/26 02:51:32;;;;;;;11.63;10.53;;;3.70;89.00;;;;;;4942716;29;20180;-88
2023/04/26 02:53:58;;;;;;;11.17;5.50;;;3.70;89.10;;;;;;4941931;29;20250;-88
2023/04/26 02:56:24;;;;;;;12.77;5.70;;;3.60;89.30;;;;;;4941491;29;20666;-88
2023/04/26 02:58:50;;;;;;;11.30;5.60;;;3.50;89.50;;;;;;4958467;28;20179;-88
2023/04/26 03:01:16;;;;;;;14.33;9.70;;;3.50;89.50;;;;;;4940741;29;20757;-88
2023/04/26 03:03:42;;;;;;;11.83;9.17;;;3.60;89.40;;;;;;4958950;28;20175;-88
2023/04/26 03:06:08;;;;;;;14.73;9.73;;;3.60;89.60;;;;;;4941203;28;20580;-88
2023/04/26 03:08:35;;;;;;;15.20;9.97;;;3.60;89.70;;;;;;4941467;29;20178;-88
2023/04/26 03:11:01;;;;;;;12.63;4.80;;;3.60;89.60;;;;;;4958845;29;20274;-88
2023/04/26 03:13:26;;;;;;;10.00;5.33;;;3.60;89.70;;;;;;4941890;29;20329;-88
2023/04/26 03:15:52;;;;;;;12.50;10.27;;;3.70;89.70;;;;;;4941363;28;20235;-88
2023/04/26 03:18:18;;;;;;;18.43;10.83;;;3.60;89.70;;;;;;4941338;29;20182;-88
2023/04/26 03:20:45;;;;;;;11.57;10.30;;;3.70;89.80;;;;;;4940656;29;20231;-88
2023/04/26 03:23:10;;;;;;;16.40;11.77;;;3.70;89.70;;;;;;4941294;29;20180;-88
2023/04/26 03:25:36;;;;;;;10.87;5.53;;;3.60;89.80;;;;;;4941212;29;20235;-88
2023/04/26 03:28:02;;;;;;;9.43;5.20;;;3.60;89.90;;;;;;4957960;28;20195;-88
2023/04/26 03:30:28;;;;;;;13.60;10.33;;;3.70;89.90;;;;;;4941710;29;20179;-88
2023/04/26 03:32:54;;;;;;;17.70;10.90;;;3.70;89.90;;;;;;4940829;29;20705;-88
2023/04/26 03:35:20;;;;;;;16.77;10.17;;;3.60;90.00;;;;;;4940847;29;20183;-88
2023/04/26 03:37:46;;;;;;;11.83;9.83;;;3.60;90.10;;;;;;4940848;29;20585;-88
2023/04/26 03:40:11;;;;;;;10.93;5.50;;;3.60;90.00;;;;;;4940827;29;20677;-88
2023/04/26 03:42:37;;;;;;;9.77;5.37;;;3.60;90.00;;;;;;4940689;29;20180;-88
2023/04/26 03:45:03;;;;;;;10.83;7.77;;;3.60;89.90;;;;;;4940875;29;20187;-88
2023/04/26 03:47:30;;;;;;;18.47;11.07;;;3.50;89.90;;;;;;4940764;29;20690;-88
2023/04/26 03:49:55;;;;;;;19.50;11.17;;;3.60;89.80;;;;;;4940601;29;20191;-88
2023/04/26 03:52:21;;;;;;;13.97;10.83;;;3.60;89.70;;;;;;4957676;28;20176;-88
2023/04/26 03:54:47;;;;;;;11.20;9.70;;;3.70;89.60;;;;;;4940460;29;20254;-88
2023/04/26 03:57:12;;;;;;;12.93;5.50;;;3.60;89.50;;;;;;4940172;29;20262;-88
2023/04/26 03:59:38;;;;;;;14.50;6.03;;;3.60;89.40;;;;;;4939950;29;20203;-88
2023/04/26 04:02:03;;;;;;;16.97;11.30;;;3.60;89.40;;;;;;4957889;29;20180;-88
2023/04/26 04:04:29;;;;;;;15.37;10.37;;;3.60;89.30;;;;;;4941397;29;20183;-88
2023/04/26 04:06:55;;;;;;;14.17;11.83;;;3.50;89.30;;;;;;4940273;29;20247;-88
2023/04/26 04:09:21;;;;;;;15.30;11.77;;;3.50;89.30;;;;;;4940068;29;20183;-88
2023/04/26 04:11:46;;;;;;;9.27;6.27;;;3.50;89.20;;;;;;4940024;29;20210;-88
2023/04/26 04:14:12;;;;;;;14.93;6.93;;;3.50;89.00;;;;;;4940057;29;20187;-88
2023/04/26 04:16:37;;;;;;;14.33;11.43;;;3.50;89.10;;;;;;4939988;29;20208;-88
2023/04/26 04:19:03;;;;;;;14.20;11.47;;;3.50;89.10;;;;;;4939746;29;20187;-88
2023/04/26 04:21:30;;;;;;;17.17;10.83;;;3.50;89.20;;;;;;4957196;28;20180;-88
2023/04/26 04:23:56;;;;;;;15.03;10.27;;;3.60;89.30;;;;;;4939715;29;20183;-88
2023/04/26 04:26:22;;;;;;;13.30;6.23;;;3.70;89.30;;;;;;4939690;29;20195;-87
2023/04/26 04:28:47;;;;;;;9.57;6.10;;;3.80;89.20;;;;;;4956925;28;20182;-88
2023/04/26 04:31:13;;;;;;;9.50;8.60;;;3.80;89.20;;;;;;4940075;29;20227;-88
2023/04/26 04:33:38;;;;;;;16.80;10.27;;;3.80;89.20;;;;;;4939665;29;20206;-88
2023/04/26 04:36:05;;;;;;;12.83;9.83;;;3.90;89.10;;;;;;4939698;28;20186;-88
2023/04/26 04:38:31;;;;;;;15.47;10.33;;;3.90;89.00;;;;;;4939708;29;20270;-88
2023/04/26 04:40:57;;;;;;;13.00;8.67;;;3.90;89.10;;;;;;4957307;28;20297;-88
2023/04/26 04:43:22;;;;;;;14.47;7.37;;;3.90;89.30;;;;;;4957008;28;20171;-88
2023/04/26 04:45:48;;;;;;;24.50;7.37;;;3.90;89.40;;;;;;4940187;28;20214;-88
2023/04/26 04:48:14;;;;;;;13.20;10.83;;;3.90;89.60;;;;;;4939315;29;20247;-88
2023/04/26 04:50:40;;;;;;;20.50;11.67;;;3.90;89.60;;;;;;4939516;29;20227;-88
2023/04/26 04:53:08;;;;;;;13.20;10.73;;;3.90;89.60;;;;;;4938975;29;20265;-88
2023/04/26 04:55:34;;;;;;;23.27;12.07;;;3.90;89.60;;;;;;4956567;28;20180;-88
2023/04/26 04:58:00;;;;;;;10.63;6.77;;;3.90;89.70;;;;;;4956584;28;20195;-87
2023/04/26 05:00:26;;;;;;;17.43;7.40;;;3.80;89.70;;;;;;4939006;29;20204;-87
2023/04/26 05:02:51;;;;;;;17.70;12.43;;;3.80;89.90;;;;;;4939246;29;20182;-88
2023/04/26 05:05:17;;;;;;;19.57;11.70;;;3.80;90.00;;;;;;4956555;29;20182;-88
2023/04/26 05:07:43;;;;;;;24.93;11.27;;;3.80;90.10;;;;;;4956812;28;20198;-88
2023/04/26 05:10:09;;;;;;;16.00;10.40;;;3.90;90.30;;;;;;4939182;29;20211;-88
2023/04/26 05:12:35;;;;;;;13.60;6.73;;;4.10;90.60;;;;;;4939667;29;20187;-88
2023/04/26 05:15:00;;;;;;;17.10;7.40;;;4.30;90.50;;;;;;4938960;29;20556;-88
2023/04/26 05:17:26;;;;;;;13.43;10.90;;;4.40;90.20;;;;;;4938568;29;20294;-89
2023/04/26 05:19:51;;;;;;;20.60;12.27;;;4.30;89.90;;;;;;4938708;29;20204;-88
2023/04/26 05:22:19;;;;;;;22.60;11.87;;;4.10;89.80;;;;;;4938687;29;20589;-88
2023/04/26 05:24:46;;;;;;;14.17;12.20;;;4.10;90.00;;;;;;4938660;29;20176;-88
2023/04/26 05:27:12;;;;;;;15.17;7.73;;;4.10;90.00;;;;;;4938333;29;20199;-88
2023/04/26 05:29:37;;;;;;;22.53;8.10;;;4.10;90.30;;;;;;4938525;29;20192;-88
2023/04/26 05:32:03;;;;;;;14.93;7.67;;;4.30;90.40;;;;;;4938655;29;20185;-88
2023/04/26 05:34:29;;;;;;;21.80;12.70;;;4.30;90.50;;;;;;4938350;29;20234;-88
2023/04/26 05:36:54;;;;;;;15.87;12.30;;;4.20;90.20;;;;;;4938294;29;20286;-88
2023/04/26 05:39:20;;;;;;;16.53;13.83;;;4.20;90.30;;;;;;4938360;29;20654;-88
2023/04/26 05:41:45;;;;;;;18.53;13.60;;;4.30;90.40;;;;;;4938558;29;20182;-88
2023/04/26 05:44:12;;;;;;;21.20;8.90;;;4.50;90.30;;;;;;4955757;29;20209;-88
2023/04/26 05:46:38;;;;;;;16.10;10.10;;;4.70;89.80;;;;;;4938462;29;20560;-87
2023/04/26 05:49:03;;;;;;;16.93;11.90;;;4.60;89.30;;;;;;4938454;29;20178;-88
2023/04/26 05:51:29;;;;;;;17.20;9.10;;;4.70;89.60;;;;;;4938736;29;20279;-88
2023/04/26 05:53:56;;;;;;;9.77;8.50;;;4.70;89.50;;;;;;4938860;29;20181;-88
2023/04/26 05:56:22;;;;;;;17.57;9.03;;;4.60;89.10;;;;;;4955344;28;20255;-88
2023/04/26 05:58:48;;;;;;;16.97;7.73;;;4.70;89.20;;;;;;4938385;29;20179;-88
2023/04/26 06:01:14;;;;;;;14.43;8.10;;;4.80;89.30;;;;;;4955683;29;20238;-88
2023/04/26 06:03:39;;;;;;;17.43;9.70;;;4.70;89.00;;;;;;4938656;29;20634;-88
2023/04/26 06:06:06;;;;;;;16.37;11.80;;;4.80;89.30;;;;;;4938513;28;20177;-88
2023/04/26 06:08:32;;;;;;;18.43;11.83;;;4.70;88.70;;;;;;4956045;28;20170;-88
2023/04/26 06:10:57;;;;;;;19.27;13.43;;;4.80;88.90;;;;;;4939068;29;20531;-88
2023/04/26 06:13:23;;;;;;;18.00;8.87;;;4.90;89.00;;;;;;4955262;29;20550;-88
2023/04/26 06:15:48;;;;;;;23.80;9.63;;;4.90;88.80;;;;;;4955181;28;20667;-88
2023/04/26 06:18:14;;;;;;;13.13;10.77;;;5.00;88.60;;;;;;4937794;29;20186;-88
2023/04/26 06:20:40;;;;;;;14.23;12.47;;;5.00;88.40;;;;;;4955186;28;20197;-88
2023/04/26 06:23:05;;;;;;;21.27;13.07;;;5.10;88.50;;;;;;4937843;29;20175;-88
2023/04/26 06:25:32;;;;;;;16.77;12.70;;;5.20;88.20;;;;;;4955000;29;20273;-88
2023/04/26 06:27:58;;;;;;;14.90;13.50;;;5.30;88.10;;;;;;4954779;28;20193;-88
2023/04/26 06:30:23;;;;;;;14.10;7.93;;;5.50;88.40;;;;;;4937711;29;20183;-88
2023/04/26 06:32:49;;;;;;;24.73;8.47;;;5.80;88.30;;;;;;4937796;29;20186;-88
2023/04/26 06:35:15;;;;;;;17.07;13.47;;;5.80;88.00;;;;;;4939214;29;20183;-88
2023/04/26 06:37:41;;;;;;;23.73;13.77;;;5.60;87.10;;;;;;4941171;29;20265;-89
2023/04/26 06:40:07;;;;;;;21.23;13.73;;;5.80;87.40;;;;;;4941186;29;20198;-88
2023/04/26 06:42:32;;;;;;;15.50;13.40;;;5.80;86.50;;;;;;4941219;29;20230;-89
2023/04/26 06:44:58;;;;;;;15.10;8.50;;;5.90;86.70;;;;;;4941118;29;20179;-88
2023/04/26 06:47:24;;;;;;;15.93;8.67;;;5.80;86.00;;;;;;4941260;29;20237;-88
2023/04/26 06:49:50;;;;;;;17.67;14.00;;;5.70;86.10;;;;;;4940971;29;20185;-88
2023/04/26 06:52:16;;;;;;;17.43;13.70;;;5.50;86.20;;;;;;4958248;28;20185;-88
2023/04/26 06:54:41;;;;;;;20.10;13.67;;;5.50;86.70;;;;;;4940974;29;20175;-88
2023/04/26 06:57:07;;;;;;;16.57;13.97;;;5.60;86.70;;;;;;4940995;29;20293;-88
2023/04/26 06:59:32;;;;;;;14.47;8.00;;;5.90;85.80;;;;;;4957968;28;20218;-88
2023/04/26 07:01:59;;;;;;;13.50;8.23;;;6.00;85.70;;;;;;4958158;28;20261;-88
2023/04/26 07:04:25;;;;;;;16.10;10.93;;;6.00;84.30;;;;;;4940681;29;20183;-88
2023/04/26 07:06:50;;;;;;;16.27;14.00;;;6.10;83.50;;;;;;4940612;29;20201;-89
2023/04/26 07:09:16;;;;;;;15.63;13.97;;;6.30;84.00;;;;;;4940538;29;20258;-88
2023/04/26 07:11:45;;;;;;;16.87;15.20;;;6.40;83.80;;;;;;4940979;29;20198;-88
2023/04/26 07:14:10;;;;;;;11.10;8.13;;;6.60;83.20;;;;;;4940716;29;20194;-88
2023/04/26 07:16:36;;;;;;;13.17;9.30;;;6.70;82.20;;;;;;4940466;29;20678;-88
2023/04/26 07:19:02;;;;;;;14.73;8.73;;;6.60;81.60;;;;;;4940654;29;20175;-88
2023/04/26 07:21:27;;;;;;;17.63;15.97;;;6.40;81.20;;;;;;4940175;29;20290;-87
2023/04/26 07:23:55;;;;;;;16.93;15.47;;;6.20;82.00;;;;;;4940525;29;20610;-89
2023/04/26 07:26:22;;;;;;;16.63;15.00;;;5.70;82.70;;;;;;4940635;29;20198;-88
2023/04/26 07:28:49;;;;;;;16.77;15.20;;;5.40;84.10;;;;;;4940582;29;20274;-88
2023/04/26 07:31:15;;;;;;;12.73;7.90;;;5.20;85.00;;;;;;4957603;29;20183;-89
2023/04/26 07:33:41;;;;;;;13.93;8.07;;;5.20;85.50;;;;;;4940937;29;20528;-88
2023/04/26 07:36:07;;;;;;;14.53;13.03;;;5.30;85.70;;;;;;4940171;28;20692;-89
2023/04/26 07:38:32;;;;;;;17.30;15.07;;;5.30;85.90;;;;;;4940089;29;20245;-87
2023/04/26 07:41:00;;;;;;;20.13;15.03;;;5.30;86.20;;;;;;4939947;29;20210;-88
2023/04/26 07:43:26;;;;;;;13.47;12.23;;;5.50;86.50;;;;;;4957704;28;20330;-89
2023/04/26 07:45:51;;;;;;;10.77;7.93;;;5.60;87.30;;;;;;4939508;28;20279;-88
2023/04/26 07:48:17;;;;;;;12.83;7.77;;;5.60;86.60;;;;;;4940730;29;20170;-89
2023/04/26 07:50:43;;;;;;;23.07;14.00;;;5.70;86.30;;;;;;4940558;29;20653;-88
2023/04/26 07:53:08;;;;;;;21.23;13.50;;;5.90;86.60;;;;;;4956939;28;20186;-89
2023/04/26 07:55:34;;;;;;;15.83;13.97;;;6.00;86.40;;;;;;4939824;29;20197;-89
2023/04/26 07:57:59;;;;;;;15.60;13.13;;;6.10;85.80;;;;;;4939826;29;20210;-88
2023/04/26 08:00:25;;;;;;;12.57;8.23;;;6.30;86.20;;;;;;4939560;29;20214;-89
2023/04/26 08:02:51;;;;;;;20.57;8.10;;;6.60;86.40;;;;;;4939620;29;20175;-88
2023/04/26 08:05:16;;;;;;;12.33;7.70;;;6.90;86.90;;;;;;4940334;29;20179;-89
2023/04/26 08:07:42;;;;;;;17.97;14.57;;;7.00;86.30;;;;;;4939834;29;20590;-89
2023/04/26 08:10:08;;;;;;;20.20;14.50;;;7.10;85.20;;;;;;4939507;29;20244;-88
2023/04/26 08:12:36;;;;;;;19.80;15.77;;;7.10;84.90;;;;;;4939378;29;20192;-89
2023/04/26 08:15:03;;;;;;;19.80;15.73;;;7.00;83.80;;;;;;4939397;29;20190;-89
2023/04/26 08:17:30;;;;;;;11.50;9.37;;;7.20;83.90;;;;;;4956524;28;20314;-88
2023/04/26 08:19:55;;;;;;;18.10;10.60;;;7.20;81.50;;;;;;4939133;29;20257;-88
2023/04/26 08:22:21;;;;;;;16.90;15.40;;;7.50;80.60;;;;;;4939311;29;20183;-87
2023/04/26 08:24:48;;;;;;;17.60;15.90;;;7.80;81.40;;;;;;4939261;29;20283;-87
2023/04/26 08:27:14;;;;;;;19.80;18.13;;;7.80;80.50;;;;;;4939075;29;20199;-87
2023/04/26 08:29:40;;;;;;;22.07;20.10;;;7.90;76.00;;;;;;4939066;29;20561;-87
2023/04/26 08:32:06;;;;;;;13.23;12.23;;;7.90;73.90;;;;;;4939362;29;20183;-86
2023/04/26 08:34:31;;;;;;;12.03;10.90;;;8.00;71.70;;;;;;4956286;29;20175;-89
2023/04/26 08:36:57;;;;;;;21.00;19.10;;;8.20;74.20;;;;;;4938983;29;20196;-88
2023/04/26 08:39:23;;;;;;;21.17;19.43;;;8.30;73.30;;;;;;4938856;29;20186;-88
2023/04/26 08:41:57;;;;;;;20.07;18.37;;;8.30;74.20;;;;;;4938862;29;20176;-87
2023/04/26 08:44:24;;;;;;;22.57;20.73;;;8.60;75.10;;;;;;4956338;28;20175;-88
2023/04/26 08:47:04;;;;;;;22.80;21.13;;;8.30;70.20;;;;;;4938660;29;20677;-88
2023/04/26 08:49:39;;;;;;;13.13;11.90;;;8.30;70.20;;;;;;4938930;29;20645;-88
2023/04/26 08:52:08;;;;;;;12.20;10.63;;;8.20;72.80;;;;;;4939065;29;20171;-89
2023/04/26 08:54:36;;;;;;;17.37;15.57;;;7.50;75.40;;;;;;4939031;29;20733;-88
2023/04/26 08:57:02;;;;;;;18.67;16.87;;;7.30;77.80;;;;;;4938100;29;20207;-89
2023/04/26 08:59:32;;;;;;;18.83;17.37;;;7.30;76.50;;;;;;4938470;29;20172;-90
2023/04/26 09:02:00;;;;;;;16.50;15.30;;;7.60;76.10;;;;;;4939403;29;20168;-89
2023/04/26 09:04:25;;;;;;;16.57;12.20;;;8.00;76.20;;;;;;4938546;29;20175;-89
2023/04/26 09:06:55;;;;;;;11.83;10.83;;;8.10;74.50;;;;;;4938742;29;20222;-89
2023/04/26 09:09:23;;;;;;;19.90;18.40;;;8.20;73.90;;;;;;4939480;29;20179;-88
2023/04/26 09:11:56;;;;;;;20.93;19.17;;;8.30;72.70;;;;;;4938789;29;20195;-90
2023/04/26 09:14:22;;;;;;;20.47;18.73;;;8.70;73.70;;;;;;4938926;29;20182;-90
2023/04/26 09:16:48;;;;;;;20.80;18.80;;;8.80;72.60;;;;;;4939211;29;20570;-86
2023/04/26 09:19:13;;;;;;;16.50;12.47;;;8.80;72.00;;;;;;4938230;29;20202;-86
2023/04/26 09:21:46;;;;;;;15.63;12.60;;;8.70;69.80;;;;;;4955492;29;20192;-86
2023/04/26 09:24:12;;;;;;;20.07;18.67;;;8.20;71.30;;;;;;4955595;29;20203;-85
2023/04/26 09:26:38;;;;;;;16.30;15.17;;;7.90;71.90;;;;;;4938159;29;20290;-87
2023/04/26 09:29:11;;;;;;;18.77;17.10;;;7.50;73.50;;;;;;4938141;29;20207;-88
2023/04/26 09:31:39;;;;;;;19.77;18.27;;;7.40;73.10;;;;;;4939298;29;20179;-88
2023/04/26 09:34:04;;;;;;;13.10;12.00;;;7.40;73.60;;;;;;4955235;29;20262;-88
2023/04/26 09:36:30;;;;;;;13.03;11.87;;;7.50;71.50;;;;;;4937954;29;20294;-88
2023/04/26 09:38:56;;;;;;;12.10;11.10;;;7.70;73.60;;;;;;4938154;29;20183;-87
2023/04/26 09:41:22;;;;;;;19.43;18.20;;;7.70;74.00;;;;;;4937929;29;20210;-86
2023/04/26 09:43:51;;;;;;;21.40;20.00;;;7.90;72.80;;;;;;4955509;28;20175;-86
2023/04/26 09:46:23;;;;;;;19.37;17.93;;;8.10;72.50;;;;;;4937984;29;20202;-86
2023/04/26 09:49:00;;;;;;;19.83;18.27;;;8.20;73.00;;;;;;4955025;29;20178;-86
2023/04/26 09:51:27;;;;;;;14.83;10.50;;;8.30;72.70;;;;;;4938010;29;20170;-88
2023/04/26 09:53:53;;;;;;;12.13;10.93;;;8.80;74.10;;;;;;4938276;29;20266;-88
2023/04/26 09:56:19;;;;;;;20.03;18.40;;;8.50;71.50;;;;;;4955086;28;20242;-88
2023/04/26 09:58:59;;;;;;;20.97;19.37;;;8.70;70.50;;;;;;4937961;29;20191;-88
2023/04/26 10:01:30;;;;;;;20.93;19.33;;;9.00;70.50;;;;;;4937880;29;20621;-88
2023/04/26 10:03:56;;;;;;;22.27;20.30;;;9.00;70.30;;;;;;4955197;29;20160;-88
2023/04/26 10:06:23;;;;;;;11.87;10.73;;;9.50;71.50;;;;;;4938194;29;20242;-89
2023/04/26 10:08:48;;;;;;;13.13;12.07;;;9.90;71.80;;;;;;4938767;29;20551;-89
2023/04/26 10:11:14;;;;;;;12.80;11.70;;;9.60;70.30;;;;;;4941697;29;20203;-88
2023/04/26 10:13:41;;;;;;;21.20;19.13;;;9.30;71.60;;;;;;4941884;29;20628;-88
2023/04/26 10:16:08;;;;;;;22.37;20.57;;;9.00;72.40;;;;;;4941898;28;20187;-88
2023/04/26 10:18:34;;;;;;;22.80;20.90;;;8.80;73.60;;;;;;4941719;29;20663;-87
2023/04/26 10:21:06;;;;;;;22.27;20.53;;;8.40;73.50;;;;;;4941584;29;20242;-88
2023/04/26 10:23:32;;;;;;;13.43;12.10;;;8.20;74.90;;;;;;4941822;29;20190;-88
2023/04/26 10:25:58;;;;;;;11.90;10.87;;;8.40;75.10;;;;;;4941290;28;20180;-88
2023/04/26 10:28:48;;;;;;;22.03;18.33;;;8.50;76.20;;;;;;4958583;29;20172;-87
2023/04/26 10:31:13;;;;;;;19.57;17.67;;;8.70;75.80;;;;;;4941194;29;20183;-88
2023/04/26 10:33:39;;;;;;;19.77;18.03;;;8.70;75.40;;;;;;4941889;29;20218;-88
2023/04/26 10:36:12;;;;;;;22.07;20.37;;;8.80;73.60;;;;;;4941611;28;20180;-90
2023/04/26 10:39:17;;;;;;;15.93;12.50;;;8.50;72.20;;;;;;4941598;29;20187;-90
2023/04/26 10:41:42;;;;;;;14.63;13.30;;;8.30;72.80;;;;;;4957656;29;20278;-90
2023/04/26 10:44:36;;;;;;;23.93;21.50;;;8.30;71.20;;;;;;4941613;29;20202;-90
2023/04/26 10:47:03;;;;;;;22.27;20.13;;;8.40;70.70;;;;;;4941350;29;20207;-90
2023/04/26 10:49:48;;;;;;;22.80;20.87;;;8.80;70.80;;;;;;4942409;29;20179;-90
2023/04/26 10:52:15;;;;;;;22.90;21.10;;;8.80;69.80;;;;;;4941405;29;20187;-90
2023/04/26 10:54:55;;;;;;;16.40;15.07;;;9.00;69.80;;;;;;4958794;28;20239;-90
2023/04/26 10:57:22;;;;;;;12.40;11.10;;;8.80;70.70;;;;;;4942243;29;20249;-90
2023/04/26 11:00:13;;;;;;;13.63;12.33;;;8.80;72.00;;;;;;4941102;29;20203;-90
2023/04/26 11:03:05;;;;;;;20.70;19.07;;;8.40;73.30;;;;;;4941865;29;20258;-89
2023/04/26 11:05:36;;;;;;;22.77;20.57;;;8.20;74.00;;;;;;4941224;29;20176;-90
2023/04/26 11:08:07;;;;;;;23.80;21.20;;;8.30;73.30;;;;;;4941627;29;20223;-90
2023/04/26 11:10:32;;;;;;;19.23;17.67;;;8.20;72.40;;;;;;4941536;29;20218;-90
2023/04/26 11:13:00;;;;;;;13.00;11.93;;;8.30;72.50;;;;;;4941018;29;20717;-89
2023/04/26 11:15:25;;;;;;;12.60;11.07;;;8.00;73.50;;;;;;4941505;29;20191;-90
2023/04/26 11:17:51;;;;;;;20.70;18.70;;;8.30;75.60;;;;;;4958432;28;20736;-90
2023/04/26 11:20:17;;;;;;;21.63;19.80;;;9.00;76.90;;;;;;4940150;29;20270;-90
2023/04/26 11:22:42;;;;;;;21.33;18.97;;;8.90;72.90;;;;;;4941143;29;20229;-90
2023/04/26 11:25:08;;;;;;;20.97;19.13;;;8.90;73.50;;;;;;4941269;29;20635;-90
2023/04/26 11:27:34;;;;;;;14.43;12.40;;;9.30;72.00;;;;;;4958343;28;20274;-90
2023/04/26 11:30:03;;;;;;;14.90;12.77;;;9.60;68.60;;;;;;4940919;29;20187;-89
2023/04/26 11:32:29;;;;;;;18.80;16.83;;;9.30;65.90;;;;;;4958359;29;20175;-89
2023/04/26 11:34:58;;;;;;;22.73;20.70;;;8.90;65.10;;;;;;4940562;29;20634;-90
2023/04/26 11:37:25;;;;;;;23.60;21.80;;;8.90;66.70;;;;;;4957768;28;20202;-90
2023/04/26 11:39:50;;;;;;;22.17;20.07;;;8.70;68.60;;;;;;4940777;29;20211;-90
2023/04/26 11:42:16;;;;;;;23.13;20.77;;;9.20;68.70;;;;;;4940749;29;20184;-90
2023/04/26 11:44:41;;;;;;;14.43;12.97;;;9.30;68.40;;;;;;4958002;28;20552;-90
2023/04/26 11:47:08;;;;;;;13.63;12.37;;;9.20;66.80;;;;;;4958019;28;20195;-89
2023/04/26 11:49:36;;;;;;;15.17;13.60;;;9.70;67.40;;;;;;4940766;29;20175;-90
2023/04/26 11:52:03;;;;;;;16.30;14.77;;;10.20;68.80;;;;;;4940159;29;20546;-90
2023/04/26 11:54:30;;;;;;;16.33;14.87;;;10.50;64.10;;;;;;4940185;29;20179;-90
2023/04/26 11:56:59;;;;;;;16.93;15.27;;;10.20;63.70;;;;;;4940744;29;20219;-90
2023/04/26 11:59:26;;;;;;;16.77;15.40;;;9.70;65.90;;;;;;4939830;29;20179;-89
2023/04/26 12:01:52;;;;;;;16.00;13.80;;;9.30;65.90;;;;;;4940519;29;20183;-89
2023/04/26 12:04:17;;;;;;;15.50;14.20;;;9.40;64.80;;;;;;4940324;29;20172;-89
2023/04/26 12:06:45;;;;;;;14.30;13.40;;;8.80;64.10;;;;;;4939793;29;20551;-89
2023/04/26 12:09:11;;;;;;;15.37;14.13;;;8.50;65.00;;;;;;4939774;29;20662;-89
2023/04/26 12:11:37;;;;;;;16.37;14.63;;;8.30;66.20;;;;;;4939520;29;20230;-89
2023/04/26 12:14:04;;;;;;;15.73;14.50;;;8.30;67.40;;;;;;4956710;28;20238;-89
2023/04/26 12:16:30;;;;;;;13.23;12.03;;;8.40;68.40;;;;;;4940376;29;20199;-89
2023/04/26 12:18:56;;;;;;;16.30;12.80;;;8.60;69.20;;;;;;4939306;29;20179;-88
2023/04/26 12:21:23;;;;;;;16.40;13.13;;;8.80;71.00;;;;;;4956597;29;20303;-89
2023/04/26 12:23:49;;;;;;;17.40;15.57;;;9.20;68.80;;;;;;4939300;29;20184;-89
2023/04/26 12:26:15;;;;;;;20.40;18.63;;;9.40;65.90;;;;;;4939372;29;20199;-89
2023/04/26 12:28:41;;;;;;;20.77;18.80;;;9.90;66.80;;;;;;4938940;29;20171;-89
2023/04/26 12:31:07;;;;;;;21.53;19.83;;;10.50;65.10;;;;;;4939111;29;20229;-89
2023/04/26 12:33:33;;;;;;;17.20;15.40;;;10.80;65.50;;;;;;4938341;29;20183;-89
2023/04/26 12:36:11;;;;;;;15.73;14.43;;;10.50;59.30;;;;;;4938898;28;20187;-89
2023/04/26 12:38:38;;;;;;;23.03;21.10;;;10.10;60.10;;;;;;4939487;29;20650;-89